Time;durP1;ratioP1;P1;durP2;ratioP2;P2;SDS_P1;SDS_P2;PMS_P1;PMS_P2;Temp;Humidity;BMP_temperature;BMP_pressure;BME280_temperature;BME280_humidity;BME280_pressure;Samples;Min_cycle;Max_cycle;Signal;HPM_P1;HPM_P2
2022/05/17 00:01:40;;;;;;;10.25;9.95;;;16.50;99.90;;;;;;5101631;28;20980;-82
2022/05/17 00:04:07;;;;;;;10.13;9.82;;;16.40;99.90;;;;;;5100920;28;20229;-82
2022/05/17 00:06:35;;;;;;;9.88;9.57;;;16.40;99.90;;;;;;5101312;28;20283;-82
2022/05/17 00:09:03;;;;;;;9.90;9.60;;;16.50;99.90;;;;;;5102117;28;20230;-81
2022/05/17 00:11:31;;;;;;;10.10;9.80;;;16.50;99.90;;;;;;5100681;28;20225;-82
2022/05/17 00:13:59;;;;;;;10.10;9.80;;;16.50;99.90;;;;;;5104260;28;20229;-82
2022/05/17 00:16:28;;;;;;;10.40;10.10;;;16.50;99.90;;;;;;5113971;28;20230;-82
2022/05/17 00:18:57;;;;;;;9.90;9.60;;;16.50;99.90;;;;;;5114419;28;20230;-82
2022/05/17 00:21:25;;;;;;;10.18;9.88;;;16.50;99.90;;;;;;5103633;28;20230;-82
2022/05/17 00:23:53;;;;;;;10.30;10.00;;;16.50;99.90;;;;;;5101504;28;20225;-82
2022/05/17 00:26:21;;;;;;;10.50;10.20;;;16.50;99.90;;;;;;5101613;28;20254;-82
2022/05/17 00:28:49;;;;;;;10.43;10.13;;;16.50;99.90;;;;;;5104376;28;20246;-82
2022/05/17 00:31:16;;;;;;;10.30;10.00;;;16.60;99.90;;;;;;5104633;28;20243;-81
2022/05/17 00:33:44;;;;;;;10.55;10.25;;;16.50;99.90;;;;;;5104261;28;20233;-82
2022/05/17 00:36:13;;;;;;;10.50;10.20;;;16.50;99.90;;;;;;5103829;28;20300;-81
2022/05/17 00:38:41;;;;;;;10.50;10.20;;;16.50;99.90;;;;;;5104631;28;20222;-82
2022/05/17 00:41:09;;;;;;;10.63;10.32;;;16.50;99.90;;;;;;5106822;28;20228;-82
2022/05/17 00:46:33;;;;;;;10.75;10.45;;;16.40;99.90;;;;;;5107778;28;20217;-83
2022/05/17 00:49:02;;;;;;;10.60;10.30;;;16.50;99.90;;;;;;5103984;28;20236;-83
2022/05/17 00:51:32;;;;;;;10.60;10.30;;;16.50;99.90;;;;;;5103254;28;20234;-83
2022/05/17 00:54:08;;;;;;;10.70;10.40;;;16.50;99.90;;;;;;5103904;28;20283;-82
2022/05/17 00:56:42;;;;;;;10.73;10.43;;;16.50;99.90;;;;;;5103342;28;20229;-83
2022/05/17 00:59:10;;;;;;;10.57;10.27;;;16.50;99.90;;;;;;5103316;28;20228;-83
2022/05/17 01:01:39;;;;;;;10.30;10.00;;;16.60;99.90;;;;;;5103110;28;20226;-83
2022/05/17 01:04:12;;;;;;;10.60;10.30;;;16.60;99.90;;;;;;5103197;28;20238;-83
2022/05/17 01:06:45;;;;;;;10.50;10.20;;;16.60;99.90;;;;;;5103546;28;20259;-82
2022/05/17 01:09:14;;;;;;;10.68;10.38;;;16.60;99.90;;;;;;5104366;28;20241;-82
2022/05/17 01:11:42;;;;;;;10.50;10.20;;;16.60;99.90;;;;;;5104215;28;20222;-82
2022/05/17 01:16:56;;;;;;;10.90;10.60;;;16.50;99.90;;;;;;5103196;28;20221;-82
2022/05/17 01:19:24;;;;;;;10.93;10.63;;;16.50;99.90;;;;;;5102200;28;20240;-82
2022/05/17 01:21:53;;;;;;;10.45;10.15;;;16.50;99.90;;;;;;5102375;28;20225;-82
2022/05/17 01:24:21;;;;;;;10.43;10.13;;;16.50;99.90;;;;;;5102030;28;20225;-83
2022/05/17 01:26:56;;;;;;;10.40;10.10;;;16.50;99.90;;;;;;5102368;28;20238;-81
2022/05/17 01:29:27;;;;;;;10.55;10.25;;;16.50;99.90;;;;;;5103468;28;20220;-84
2022/05/17 01:31:55;;;;;;;10.70;10.40;;;16.60;99.90;;;;;;5102369;28;20221;-81
2022/05/17 01:34:23;;;;;;;10.60;10.30;;;16.50;99.90;;;;;;5102363;28;20291;-81
2022/05/17 01:36:52;;;;;;;10.40;10.10;;;16.60;99.90;;;;;;5102393;28;20237;-81
2022/05/17 01:39:19;;;;;;;10.43;10.13;;;16.60;99.90;;;;;;5102061;28;20222;-81
2022/05/17 01:41:47;;;;;;;10.30;10.00;;;16.60;99.90;;;;;;5102469;28;20801;-81
2022/05/17 01:44:15;;;;;;;10.13;9.82;;;16.60;99.90;;;;;;5102004;28;20229;-80
2022/05/17 01:46:43;;;;;;;10.30;10.00;;;16.50;99.90;;;;;;5122705;22;20237;-80
2022/05/17 01:49:10;;;;;;;10.30;10.00;;;16.50;99.90;;;;;;5101876;28;20235;-80
2022/05/17 01:51:39;;;;;;;10.60;10.30;;;16.50;99.90;;;;;;5107601;28;20217;-79
2022/05/17 01:54:20;;;;;;;10.63;10.32;;;16.50;99.90;;;;;;5118803;28;20233;-78
2022/05/17 01:56:47;;;;;;;10.50;10.20;;;16.50;99.90;;;;;;5085322;28;20233;-80
2022/05/17 01:59:17;;;;;;;10.50;10.20;;;16.50;99.90;;;;;;5082803;28;20230;-79
2022/05/17 02:01:45;;;;;;;10.70;10.40;;;16.40;99.90;;;;;;5082894;28;20225;-79
2022/05/17 02:04:15;;;;;;;10.60;10.30;;;16.40;99.90;;;;;;5082471;28;20333;-79
2022/05/17 02:06:44;;;;;;;10.50;10.20;;;16.40;99.90;;;;;;5082083;28;20284;-79
2022/05/17 02:09:17;;;;;;;10.32;10.02;;;16.30;99.90;;;;;;5081865;28;20244;-80
2022/05/17 02:11:45;;;;;;;10.35;10.05;;;16.30;99.90;;;;;;5081995;28;20241;-79
2022/05/17 02:14:13;;;;;;;10.50;10.20;;;16.30;99.90;;;;;;5081736;28;20238;-80
2022/05/17 02:16:43;;;;;;;10.55;10.25;;;16.30;99.90;;;;;;5082385;28;20229;-80
2022/05/17 02:19:12;;;;;;;10.60;10.30;;;16.30;99.90;;;;;;5082975;28;20237;-80
2022/05/17 02:21:41;;;;;;;10.55;10.25;;;16.30;99.90;;;;;;5082166;28;20234;-80
2022/05/17 02:24:11;;;;;;;10.65;10.35;;;16.30;99.90;;;;;;5081995;28;20233;-80
2022/05/17 02:26:42;;;;;;;10.43;10.13;;;16.30;99.90;;;;;;5085681;28;20230;-79
2022/05/17 02:29:13;;;;;;;10.70;10.40;;;16.30;99.90;;;;;;5095578;28;20265;-79
2022/05/17 02:31:41;;;;;;;10.43;10.13;;;16.20;99.90;;;;;;5093991;28;20210;-80
2022/05/17 02:34:10;;;;;;;10.27;9.98;;;16.20;99.90;;;;;;5084190;28;20281;-80
2022/05/17 02:36:39;;;;;;;10.57;10.27;;;16.20;99.90;;;;;;5082911;28;20230;-80
2022/05/17 02:39:09;;;;;;;10.05;9.75;;;16.20;99.90;;;;;;5082499;28;20241;-80
2022/05/17 02:41:39;;;;;;;10.57;10.27;;;16.10;99.90;;;;;;5081851;28;20222;-78
2022/05/17 02:44:11;;;;;;;10.40;10.10;;;16.20;99.90;;;;;;5082620;28;20234;-80
2022/05/17 02:46:38;;;;;;;10.40;10.10;;;16.20;99.90;;;;;;5081695;28;20245;-79
2022/05/17 02:49:07;;;;;;;10.52;10.23;;;16.10;99.90;;;;;;5080474;28;20265;-80
2022/05/17 02:51:36;;;;;;;10.38;10.07;;;16.10;99.90;;;;;;5081780;28;20234;-79
2022/05/17 02:54:10;;;;;;;10.68;10.38;;;16.00;99.90;;;;;;5081171;28;20610;-80
2022/05/17 02:56:46;;;;;;;10.40;10.10;;;16.00;99.90;;;;;;5080837;28;20245;-79
2022/05/17 02:59:18;;;;;;;10.52;10.23;;;16.00;99.90;;;;;;5080891;28;20245;-79
2022/05/17 03:01:46;;;;;;;10.40;10.10;;;16.00;99.90;;;;;;5080991;28;20222;-80
2022/05/17 03:04:14;;;;;;;10.65;10.35;;;15.90;99.90;;;;;;5081217;28;20273;-78
2022/05/17 03:06:42;;;;;;;10.43;10.13;;;15.90;99.90;;;;;;5081263;28;20242;-79
2022/05/17 03:09:13;;;;;;;10.40;10.10;;;15.90;99.90;;;;;;5081458;28;20238;-79
2022/05/17 03:11:43;;;;;;;10.20;9.90;;;15.90;99.90;;;;;;5081800;28;20313;-79
2022/05/17 03:14:11;;;;;;;10.10;9.80;;;15.90;99.90;;;;;;5080952;28;20237;-79
2022/05/17 03:16:42;;;;;;;11.05;10.75;;;15.90;99.90;;;;;;5080790;28;20296;-80
2022/05/17 03:19:10;;;;;;;10.88;10.57;;;16.00;99.90;;;;;;5081160;28;20794;-80
2022/05/17 03:21:38;;;;;;;10.88;10.57;;;15.90;99.90;;;;;;5080323;28;20222;-78
2022/05/17 03:24:07;;;;;;;10.85;10.55;;;16.00;99.90;;;;;;5081332;28;20265;-79
2022/05/17 03:26:37;;;;;;;10.82;10.52;;;15.90;99.90;;;;;;5081531;28;20261;-79
2022/05/17 03:29:07;;;;;;;10.90;10.60;;;15.90;99.90;;;;;;5081380;28;20272;-79
2022/05/17 03:31:36;;;;;;;10.85;10.55;;;15.90;99.90;;;;;;5081423;28;20221;-79
2022/05/17 03:34:11;;;;;;;10.85;10.55;;;15.90;99.90;;;;;;5080884;28;20258;-78
2022/05/17 03:36:46;;;;;;;11.30;10.90;;;15.90;99.90;;;;;;5080819;28;20352;-79
2022/05/17 03:39:14;;;;;;;10.85;10.55;;;15.90;99.90;;;;;;5080147;28;20225;-78
2022/05/17 03:41:43;;;;;;;11.32;10.93;;;15.90;99.90;;;;;;5080663;28;20218;-79
2022/05/17 03:44:13;;;;;;;10.68;10.38;;;15.90;99.90;;;;;;5080482;28;20226;-79
2022/05/17 03:46:42;;;;;;;11.27;10.88;;;15.90;99.90;;;;;;5080419;28;20242;-78
2022/05/17 03:49:14;;;;;;;10.82;10.52;;;15.90;99.90;;;;;;5079461;28;20295;-78
2022/05/17 03:51:41;;;;;;;11.00;10.70;;;15.90;99.90;;;;;;5079574;28;20230;-78
2022/05/17 03:54:11;;;;;;;10.68;10.38;;;15.80;99.90;;;;;;5079852;28;20234;-78
2022/05/17 03:56:39;;;;;;;10.82;10.52;;;15.80;99.90;;;;;;5079532;28;20319;-79
2022/05/17 03:59:09;;;;;;;10.80;10.50;;;15.80;99.90;;;;;;5079138;28;20222;-79
2022/05/17 04:01:38;;;;;;;10.82;10.52;;;15.70;99.90;;;;;;5082134;28;20226;-79
2022/05/17 04:04:07;;;;;;;10.80;10.50;;;15.60;99.90;;;;;;5082949;28;20307;-78
2022/05/17 04:06:48;;;;;;;11.20;10.80;;;15.60;99.90;;;;;;5083016;28;20292;-79
2022/05/17 04:09:16;;;;;;;11.57;11.18;;;15.60;99.90;;;;;;5083431;28;20254;-79
2022/05/17 04:11:45;;;;;;;11.52;11.13;;;15.60;99.90;;;;;;5083955;28;20392;-78
2022/05/17 04:14:14;;;;;;;11.40;11.00;;;15.70;99.90;;;;;;5083510;28;20234;-78
2022/05/17 04:16:44;;;;;;;11.48;11.07;;;15.70;99.90;;;;;;5083198;28;20288;-79
2022/05/17 04:19:15;;;;;;;10.93;10.63;;;15.80;99.90;;;;;;5083164;28;20226;-79
2022/05/17 04:21:47;;;;;;;11.05;10.68;;;15.80;99.90;;;;;;5083033;28;20231;-78
2022/05/17 04:24:21;;;;;;;11.10;10.70;;;15.80;99.90;;;;;;5083022;28;20328;-79
2022/05/17 04:26:51;;;;;;;11.20;10.80;;;15.80;99.90;;;;;;5082436;28;20230;-78
2022/05/17 04:29:21;;;;;;;11.05;10.65;;;15.90;99.90;;;;;;5082571;28;20645;-79
2022/05/17 04:31:50;;;;;;;11.10;10.70;;;15.90;99.90;;;;;;5082787;28;20226;-79
2022/05/17 04:34:20;;;;;;;11.10;10.70;;;15.90;99.90;;;;;;5082160;28;20261;-78
2022/05/17 04:37:00;;;;;;;10.77;10.48;;;15.90;99.90;;;;;;5083269;28;20379;-79
2022/05/17 04:39:28;;;;;;;11.30;10.90;;;15.90;99.90;;;;;;5082240;28;20304;-79
2022/05/17 04:41:57;;;;;;;10.90;10.60;;;15.80;99.90;;;;;;5082333;28;20230;-79
2022/05/17 04:44:26;;;;;;;11.15;10.77;;;15.80;99.90;;;;;;5082678;28;20258;-79
2022/05/17 04:46:57;;;;;;;10.88;10.57;;;15.80;99.90;;;;;;5082592;28;20233;-79
2022/05/17 04:49:26;;;;;;;11.05;10.70;;;15.80;99.90;;;;;;5082086;28;20234;-78
2022/05/17 04:51:57;;;;;;;11.20;10.80;;;15.90;99.90;;;;;;5082136;28;20222;-79
2022/05/17 04:54:25;;;;;;;11.00;10.65;;;15.90;99.90;;;;;;5082284;28;20230;-78
2022/05/17 04:56:54;;;;;;;11.55;11.15;;;15.90;99.90;;;;;;5087205;28;20241;-79
2022/05/17 04:59:23;;;;;;;10.02;9.73;;;15.80;99.90;;;;;;5092674;28;20249;-78
2022/05/17 05:01:52;;;;;;;8.60;8.40;;;15.80;99.90;;;;;;5094674;28;20226;-79
2022/05/17 05:04:20;;;;;;;8.80;8.60;;;15.90;99.90;;;;;;5091332;28;20230;-78
2022/05/17 05:06:48;;;;;;;8.93;8.73;;;15.80;99.90;;;;;;5084424;28;20727;-79
2022/05/17 05:09:24;;;;;;;8.98;8.77;;;15.90;99.90;;;;;;5083132;28;20253;-78
2022/05/17 05:11:52;;;;;;;9.40;9.10;;;15.90;99.90;;;;;;5082231;28;20245;-78
2022/05/17 05:14:20;;;;;;;9.38;9.07;;;15.90;99.90;;;;;;5081236;28;20226;-78
2022/05/17 05:16:50;;;;;;;9.00;8.80;;;15.90;99.90;;;;;;5081196;28;20288;-79
2022/05/17 05:19:19;;;;;;;9.30;9.00;;;15.90;99.90;;;;;;5081092;28;20280;-78
2022/05/17 05:21:47;;;;;;;8.90;8.70;;;16.00;99.90;;;;;;5081272;28;20225;-79
2022/05/17 05:24:20;;;;;;;8.93;8.73;;;16.00;99.90;;;;;;5082428;28;20273;-78
2022/05/17 05:26:48;;;;;;;9.40;9.10;;;16.10;99.90;;;;;;5083867;28;20234;-79
2022/05/17 05:29:17;;;;;;;8.77;8.57;;;16.10;99.90;;;;;;5081346;28;20226;-79
2022/05/17 05:31:47;;;;;;;8.90;8.70;;;16.20;99.90;;;;;;5081204;28;20261;-79
2022/05/17 05:34:16;;;;;;;9.02;8.82;;;16.20;99.90;;;;;;5081714;28;20238;-78
2022/05/17 05:36:46;;;;;;;9.05;8.85;;;16.30;99.90;;;;;;5082130;28;20281;-79
2022/05/17 05:39:16;;;;;;;8.93;8.73;;;16.30;99.90;;;;;;5089353;28;20237;-78
2022/05/17 05:41:44;;;;;;;8.93;8.73;;;16.30;99.90;;;;;;5091761;28;20241;-77
2022/05/17 05:44:12;;;;;;;8.60;8.40;;;16.30;99.90;;;;;;5089960;28;20241;-78
2022/05/17 05:46:43;;;;;;;8.77;8.57;;;16.40;99.90;;;;;;5087316;28;20257;-78
2022/05/17 05:49:12;;;;;;;8.55;8.35;;;16.40;99.90;;;;;;5084610;28;20238;-79
2022/05/17 05:51:51;;;;;;;8.73;8.52;;;16.50;99.90;;;;;;5082779;28;20227;-79
2022/05/17 05:54:23;;;;;;;8.85;8.65;;;16.60;99.90;;;;;;5083043;28;20249;-78
2022/05/17 06:03:25;;;;;;;9.00;8.80;;;17.00;99.90;;;;;;5001211;28;20235;-79
2022/05/17 06:06:31;;;;;;;9.30;9.00;;;17.00;99.90;;;;;;5080953;28;20261;-80
2022/05/17 06:08:59;;;;;;;9.60;9.30;;;17.10;99.90;;;;;;5081891;28;20240;-80
2022/05/17 06:11:37;;;;;;;9.43;9.13;;;17.10;99.90;;;;;;5081623;28;20440;-80
2022/05/17 06:14:07;;;;;;;9.30;9.05;;;17.20;99.90;;;;;;5081571;28;20248;-80
2022/05/17 06:16:36;;;;;;;9.00;8.80;;;17.20;99.90;;;;;;5081205;28;20257;-80
2022/05/17 06:19:06;;;;;;;9.10;8.90;;;17.30;99.90;;;;;;5081780;28;20234;-80
2022/05/17 06:21:36;;;;;;;9.55;9.25;;;17.50;99.90;;;;;;5081456;28;20300;-80
2022/05/17 06:24:07;;;;;;;9.43;9.13;;;17.50;99.90;;;;;;5082140;28;20237;-80
2022/05/17 06:26:36;;;;;;;9.13;8.93;;;17.60;99.90;;;;;;5082952;28;20242;-80
2022/05/17 06:29:05;;;;;;;9.10;8.90;;;17.70;99.90;;;;;;5081972;28;20231;-80
2022/05/17 06:34:14;;;;;;;8.88;8.68;;;17.80;99.90;;;;;;5081488;28;20234;-80
2022/05/17 06:36:54;;;;;;;8.88;8.68;;;17.90;99.90;;;;;;5083505;28;20234;-81
2022/05/17 06:39:23;;;;;;;9.18;8.98;;;17.90;99.90;;;;;;5082311;28;20230;-80
2022/05/17 06:41:53;;;;;;;8.90;8.70;;;18.00;99.90;;;;;;5085097;28;20252;-80
2022/05/17 06:44:21;;;;;;;8.90;8.70;;;18.00;99.90;;;;;;5077008;28;20985;-80
2022/05/17 06:46:49;;;;;;;9.00;8.80;;;18.10;99.90;;;;;;5073515;28;20253;-82
2022/05/17 06:49:18;;;;;;;8.98;8.77;;;18.20;99.90;;;;;;5082952;28;20268;-80
2022/05/17 06:51:57;;;;;;;9.00;8.80;;;18.30;99.90;;;;;;5073389;28;20234;-81
2022/05/17 06:54:28;;;;;;;8.65;8.45;;;18.50;99.90;;;;;;5074324;28;20238;-80
2022/05/17 06:57:12;;;;;;;8.40;8.20;;;18.60;99.90;;;;;;5072903;28;20242;-80
2022/05/17 06:59:42;;;;;;;8.80;8.60;;;18.70;99.90;;;;;;5070877;28;20295;-80
2022/05/17 07:02:13;;;;;;;8.10;7.90;;;18.80;99.90;;;;;;5078521;28;20242;-82
2022/05/17 07:04:41;;;;;;;8.48;8.27;;;18.90;99.90;;;;;;5061656;28;20238;-81
2022/05/17 07:07:13;;;;;;;8.45;8.25;;;19.00;99.90;;;;;;5060897;28;20223;-82
2022/05/17 07:13:07;;;;;;;8.70;8.50;;;19.00;99.90;;;;;;5060493;28;20334;-80
2022/05/17 07:15:17;;;;;;;8.20;8.00;;;19.20;99.90;;;;;;5072162;28;20226;-80
2022/05/17 07:17:44;;;;;;;8.10;7.90;;;19.40;99.90;;;;;;5081800;28;20256;-80
2022/05/17 07:20:13;;;;;;;8.52;8.32;;;19.50;99.90;;;;;;5081721;28;20230;-80
2022/05/17 07:22:43;;;;;;;8.30;8.10;;;19.60;99.90;;;;;;5081687;28;20233;-81
2022/05/17 07:25:13;;;;;;;7.90;7.70;;;19.80;99.90;;;;;;5081568;28;20237;-80
2022/05/17 07:27:44;;;;;;;8.40;8.20;;;19.50;99.90;;;;;;5082360;28;20258;-81
2022/05/17 07:30:13;;;;;;;7.70;7.50;;;19.60;99.90;;;;;;5082043;28;20287;-81
2022/05/17 07:32:41;;;;;;;8.07;7.88;;;19.70;99.90;;;;;;5082164;28;20218;-82
2022/05/17 07:35:10;;;;;;;8.30;8.10;;;19.70;99.90;;;;;;5080674;28;20245;-81
2022/05/17 07:37:39;;;;;;;8.18;7.97;;;19.80;99.90;;;;;;5073143;28;20238;-81
2022/05/17 07:40:09;;;;;;;8.15;7.95;;;19.80;99.90;;;;;;5064075;28;20271;-79
2022/05/17 07:42:38;;;;;;;7.70;7.50;;;19.60;99.90;;;;;;5069533;28;20233;-82
2022/05/17 07:45:17;;;;;;;7.85;7.65;;;19.70;99.90;;;;;;5070717;28;20258;-81
2022/05/17 07:47:46;;;;;;;7.47;7.28;;;19.50;99.90;;;;;;5116685;22;20229;-82
2022/05/17 07:50:14;;;;;;;8.10;7.90;;;19.40;99.90;;;;;;5069567;28;20238;-82
2022/05/17 07:52:43;;;;;;;8.30;8.10;;;19.50;99.90;;;;;;5077219;28;20245;-81
2022/05/17 07:55:15;;;;;;;8.05;7.85;;;19.60;99.90;;;;;;5077349;28;20228;-80
2022/05/17 07:57:46;;;;;;;8.60;8.40;;;19.70;99.90;;;;;;5078505;28;20238;-80
2022/05/17 08:00:17;;;;;;;8.40;8.20;;;19.80;99.90;;;;;;5069781;28;20222;-80
2022/05/17 08:02:44;;;;;;;8.40;8.20;;;19.90;99.90;;;;;;5078058;28;20226;-79
2022/05/17 08:05:12;;;;;;;8.20;8.00;;;20.00;99.90;;;;;;5078190;28;20237;-80
2022/05/17 08:07:40;;;;;;;8.10;7.90;;;20.20;99.90;;;;;;5078418;28;20295;-80
2022/05/17 08:10:09;;;;;;;8.57;8.38;;;20.30;99.90;;;;;;5078938;28;20275;-81
2022/05/17 08:12:37;;;;;;;8.35;8.15;;;20.50;99.90;;;;;;5078654;28;20288;-80
2022/05/17 08:15:06;;;;;;;8.68;8.48;;;20.40;99.90;;;;;;5080306;28;20229;-81
2022/05/17 08:17:35;;;;;;;8.95;8.75;;;20.50;99.90;;;;;;5080406;28;20333;-80
2022/05/17 08:20:07;;;;;;;8.90;8.70;;;20.60;99.90;;;;;;5078939;28;20238;-80
2022/05/17 08:22:35;;;;;;;8.23;8.02;;;20.70;99.90;;;;;;5078571;28;20230;-80
2022/05/17 08:27:47;;;;;;;8.30;8.10;;;20.80;99.90;;;;;;5078034;28;20226;-80
2022/05/17 08:30:19;;;;;;;8.20;8.00;;;20.90;99.90;;;;;;5077558;28;20331;-80
2022/05/17 08:35:40;;;;;;;8.10;7.90;;;21.30;99.90;;;;;;5076540;28;20207;-80
2022/05/17 08:38:09;;;;;;;8.30;8.10;;;21.10;99.90;;;;;;5057826;28;20276;-81
2022/05/17 08:40:55;;;;;;;8.10;7.90;;;21.00;99.90;;;;;;5057701;28;20262;-81
2022/05/17 08:43:29;;;;;;;8.20;8.00;;;21.00;99.90;;;;;;5057604;28;20245;-80
2022/05/17 08:46:09;;;;;;;8.40;8.20;;;21.20;99.90;;;;;;5057591;28;20237;-80
2022/05/17 08:48:52;;;;;;;8.70;8.50;;;21.40;99.90;;;;;;5059769;28;20268;-80
2022/05/17 08:51:32;;;;;;;8.70;8.50;;;21.60;99.90;;;;;;5060915;28;20230;-79
2022/05/17 08:54:00;;;;;;;9.10;8.90;;;21.90;99.90;;;;;;5060756;28;20261;-80
2022/05/17 08:56:30;;;;;;;8.65;8.45;;;22.30;99.90;;;;;;5065907;28;20257;-81
2022/05/17 08:59:00;;;;;;;8.80;8.60;;;22.60;99.90;;;;;;5067048;28;20298;-80
2022/05/17 09:01:42;;;;;;;9.00;8.80;;;22.50;99.90;;;;;;5067170;28;20242;-80
2022/05/17 09:04:47;;;;;;;8.88;8.68;;;22.20;99.90;;;;;;5062201;28;20229;-80
2022/05/17 09:07:23;;;;;;;8.85;8.65;;;21.80;99.90;;;;;;5061847;28;20231;-80
2022/05/17 09:10:05;;;;;;;8.95;8.75;;;22.00;99.90;;;;;;5061075;28;20235;-80
2022/05/17 09:12:43;;;;;;;8.73;8.52;;;22.30;99.90;;;;;;5080403;28;20284;-80
2022/05/17 09:15:15;;;;;;;9.13;8.93;;;22.60;99.90;;;;;;5080839;28;20233;-81
2022/05/17 09:17:43;;;;;;;8.98;8.77;;;22.70;99.90;;;;;;5078339;28;20226;-80
2022/05/17 09:20:19;;;;;;;8.63;8.43;;;23.00;99.90;;;;;;5076853;28;20237;-81
2022/05/17 09:22:47;;;;;;;9.35;9.05;;;23.20;99.90;;;;;;5083856;28;20237;-81
2022/05/17 09:25:20;;;;;;;8.95;8.75;;;23.50;99.90;;;;;;5080662;28;20230;-81
2022/05/17 09:27:51;;;;;;;8.75;8.55;;;23.50;99.90;;;;;;5081795;28;20269;-81
2022/05/17 09:30:38;;;;;;;8.70;8.50;;;23.50;99.90;;;;;;5083285;28;20241;-81
2022/05/17 09:33:09;;;;;;;8.63;8.43;;;23.30;99.90;;;;;;5082006;28;20293;-81
2022/05/17 09:35:55;;;;;;;8.70;8.50;;;23.40;99.90;;;;;;5080517;28;20642;-81
2022/05/17 09:38:23;;;;;;;8.75;8.55;;;23.50;99.90;;;;;;5081009;28;20237;-81
2022/05/17 09:40:53;;;;;;;9.40;9.10;;;23.60;99.90;;;;;;5071009;28;20253;-81
2022/05/17 09:43:41;;;;;;;9.00;8.80;;;23.40;99.90;;;;;;5079055;28;20234;-80
2022/05/17 09:46:11;;;;;;;8.50;8.30;;;23.30;99.90;;;;;;5076003;28;20230;-81
2022/05/17 09:54:31;;;;;;;8.70;8.50;;;23.50;99.90;;;;;;5080965;28;20305;-83
2022/05/17 09:57:16;;;;;;;9.00;8.80;;;23.40;99.90;;;;;;5080145;28;20260;-81
2022/05/17 09:59:45;;;;;;;8.68;8.48;;;23.60;99.90;;;;;;5079107;28;20253;-80
2022/05/17 10:02:51;;;;;;;8.75;8.55;;;24.00;99.90;;;;;;5079528;28;20226;-81
2022/05/17 10:05:25;;;;;;;8.68;8.48;;;24.20;99.90;;;;;;5080137;28;20226;-80
2022/05/17 10:07:59;;;;;;;8.80;8.60;;;24.30;99.90;;;;;;5079192;28;20233;-81
2022/05/17 10:10:37;;;;;;;8.80;8.60;;;24.30;99.90;;;;;;5079038;28;20234;-81
2022/05/17 10:13:25;;;;;;;8.57;8.38;;;24.30;99.90;;;;;;5079891;28;20234;-82
2022/05/17 10:16:06;;;;;;;8.45;8.25;;;24.40;99.90;;;;;;5077412;28;20235;-82
2022/05/17 10:18:40;;;;;;;8.20;8.00;;;24.50;99.90;;;;;;5073421;28;20230;-80
2022/05/17 10:21:14;;;;;;;8.20;8.00;;;24.00;99.90;;;;;;5079338;28;20281;-80
2022/05/17 10:23:52;;;;;;;8.88;8.68;;;23.50;99.90;;;;;;5079185;28;20291;-80
2022/05/17 10:26:28;;;;;;;8.55;8.35;;;23.00;99.90;;;;;;5071322;28;20293;-78
2022/05/17 10:29:03;;;;;;;9.00;8.80;;;22.80;99.90;;;;;;5071716;28;20293;-78
2022/05/17 10:31:37;;;;;;;9.10;8.90;;;23.10;99.90;;;;;;5071890;28;20237;-79
2022/05/17 10:34:26;;;;;;;9.25;9.00;;;23.60;99.90;;;;;;5078281;28;20238;-79
2022/05/17 10:37:01;;;;;;;9.05;8.85;;;24.20;99.90;;;;;;5077341;28;20233;-79
2022/05/17 10:39:37;;;;;;;8.60;8.40;;;24.70;99.90;;;;;;5078923;28;20233;-80
2022/05/17 10:42:06;;;;;;;7.88;7.68;;;25.00;99.90;;;;;;5079171;28;20284;-79
2022/05/17 10:44:42;;;;;;;8.88;8.68;;;25.40;99.90;;;;;;5078682;28;20226;-79
2022/05/17 10:47:18;;;;;;;8.85;8.65;;;25.70;99.90;;;;;;5079194;28;20225;-80
2022/05/17 10:50:04;;;;;;;9.07;8.88;;;25.80;99.90;;;;;;5078936;28;20218;-80
2022/05/17 10:52:46;;;;;;;9.00;8.80;;;25.90;99.90;;;;;;5072879;28;20237;-79
2022/05/17 10:55:25;;;;;;;9.35;9.05;;;25.60;99.90;;;;;;5077753;28;20284;-81
2022/05/17 10:57:59;;;;;;;9.02;8.82;;;25.80;99.90;;;;;;5076990;28;20261;-80
2022/05/17 11:00:37;;;;;;;9.70;9.40;;;25.90;99.90;;;;;;5065396;28;20287;-81
2022/05/17 11:03:45;;;;;;;9.55;9.25;;;25.60;99.90;;;;;;5058841;28;20214;-81
2022/05/17 11:06:29;;;;;;;9.45;9.15;;;25.80;99.90;;;;;;5044807;28;20257;-80
2022/05/17 11:09:08;;;;;;;9.30;9.00;;;26.50;99.90;;;;;;5083895;28;20229;-80
2022/05/17 11:12:05;;;;;;;9.48;9.18;;;27.00;99.90;;;;;;5077685;28;20291;-80
2022/05/17 11:14:43;;;;;;;9.02;8.82;;;26.70;99.90;;;;;;5078831;28;20333;-81
2022/05/17 11:17:27;;;;;;;9.02;8.82;;;26.70;99.90;;;;;;5058333;28;20301;-79
2022/05/17 11:20:06;;;;;;;8.90;8.70;;;26.70;99.90;;;;;;5058099;28;20226;-78
2022/05/17 11:22:43;;;;;;;8.95;8.75;;;27.00;99.90;;;;;;5058449;28;20231;-79
2022/05/17 11:25:50;;;;;;;8.90;8.70;;;27.30;99.90;;;;;;5058047;28;20233;-81
2022/05/17 11:28:48;;;;;;;8.82;8.63;;;27.60;99.90;;;;;;5041860;28;20234;-83
2022/05/17 11:31:20;;;;;;;9.25;9.00;;;27.70;99.90;;;;;;5059990;28;20238;-82
2022/05/17 11:33:49;;;;;;;9.25;8.98;;;27.90;99.90;;;;;;5059808;28;20239;-81
2022/05/17 11:36:44;;;;;;;11.82;11.43;;;28.20;99.90;;;;;;5071922;28;20234;-81
2022/05/17 11:39:48;;;;;;;11.90;11.50;;;27.90;99.90;;;;;;5081167;28;20257;-82
2022/05/17 11:42:34;;;;;;;12.00;11.60;;;27.90;99.90;;;;;;5087138;28;20264;-81
2022/05/17 11:45:23;;;;;;;11.00;10.70;;;28.00;99.90;;;;;;5075843;28;20281;-83
2022/05/17 11:47:57;;;;;;;11.45;11.15;;;27.80;99.90;;;;;;5091971;28;20241;-83
2022/05/17 11:50:46;;;;;;;11.50;11.20;;;27.40;99.90;;;;;;5087684;28;20256;-83
2022/05/17 11:53:45;;;;;;;11.05;10.75;;;27.30;99.90;;;;;;5081282;28;20234;-83
2022/05/17 11:56:34;;;;;;;10.90;10.60;;;27.40;99.90;;;;;;5080972;28;20226;-81
2022/05/17 11:59:50;;;;;;;10.85;10.55;;;27.70;99.90;;;;;;5079439;28;20234;-82
2022/05/17 12:02:19;;;;;;;10.98;10.68;;;28.00;99.90;;;;;;5050429;28;20288;-81
2022/05/17 12:04:48;;;;;;;11.25;10.95;;;27.60;99.90;;;;;;5076021;28;20258;-82
2022/05/17 12:07:27;;;;;;;11.10;10.80;;;27.30;99.90;;;;;;5073407;28;20240;-82
2022/05/17 12:09:56;;;;;;;11.60;11.23;;;26.30;99.90;;;;;;5080070;28;20226;-82
2022/05/17 12:12:51;;;;;;;11.35;11.05;;;26.00;99.90;;;;;;5079128;28;20234;-82
2022/05/17 12:15:52;;;;;;;11.20;10.90;;;26.10;99.90;;;;;;5060272;28;20313;-82
2022/05/17 12:18:39;;;;;;;11.30;11.00;;;26.80;99.90;;;;;;5009036;28;20240;-81
2022/05/17 12:21:26;;;;;;;11.07;10.77;;;27.60;99.90;;;;;;5086921;28;20219;-82
2022/05/17 12:24:01;;;;;;;11.07;10.77;;;27.90;99.90;;;;;;5088168;28;20233;-81
2022/05/17 12:26:47;;;;;;;10.88;10.57;;;27.80;99.90;;;;;;5103181;28;20233;-80
2022/05/17 12:32:01;;;;;;;10.88;10.57;;;28.00;99.90;;;;;;5086449;28;20233;-82
2022/05/17 12:34:31;;;;;;;11.10;10.80;;;28.00;99.90;;;;;;5086914;28;20284;-82
2022/05/17 12:37:10;;;;;;;11.05;10.75;;;27.90;99.90;;;;;;5083132;28;20307;-82
2022/05/17 12:45:15;;;;;;;11.60;11.25;;;29.10;99.90;;;;;;5079315;28;20226;-82
2022/05/17 12:47:52;;;;;;;11.48;11.18;;;29.40;99.90;;;;;;5081010;28;20242;-83
2022/05/17 12:50:40;;;;;;;11.23;10.93;;;29.70;99.90;;;;;;5081730;28;20317;-83
2022/05/17 12:53:30;;;;;;;11.18;10.88;;;29.70;99.90;;;;;;5081403;28;20285;-82
2022/05/17 12:56:07;;;;;;;11.20;10.90;;;29.60;99.90;;;;;;5082409;28;20230;-82
2022/05/17 12:58:37;;;;;;;11.00;10.70;;;28.70;99.90;;;;;;5082503;28;20238;-82
2022/05/17 13:01:08;;;;;;;11.00;10.70;;;28.10;99.90;;;;;;5082968;28;20214;-83
2022/05/17 13:03:36;;;;;;;11.20;10.90;;;27.60;99.90;;;;;;5082649;28;20224;-82
2022/05/17 13:06:07;;;;;;;11.43;11.13;;;27.60;99.90;;;;;;5082018;28;20303;-83
2022/05/17 13:08:37;;;;;;;11.40;11.10;;;27.70;99.90;;;;;;5082558;28;20300;-82
2022/05/17 13:11:09;;;;;;;11.05;10.75;;;27.70;99.90;;;;;;5071158;28;20227;-83
2022/05/17 13:14:22;;;;;;;11.30;11.00;;;27.80;99.90;;;;;;5083250;28;20237;-82
2022/05/17 13:16:52;;;;;;;11.70;11.30;;;28.20;99.90;;;;;;5070757;28;20265;-82
2022/05/17 13:19:27;;;;;;;11.30;11.00;;;27.90;99.90;;;;;;5083080;28;20241;-82
2022/05/17 13:21:57;;;;;;;11.13;10.82;;;27.80;99.90;;;;;;5083682;28;20221;-82
2022/05/17 13:24:29;;;;;;;11.50;11.20;;;27.90;99.90;;;;;;5085243;28;20234;-84
2022/05/17 13:27:03;;;;;;;11.40;11.10;;;28.00;99.90;;;;;;5086563;28;20246;-85
2022/05/17 13:29:34;;;;;;;11.00;10.70;;;28.10;99.90;;;;;;5085062;28;20263;-83
2022/05/17 13:32:04;;;;;;;11.32;11.02;;;27.80;99.90;;;;;;5082371;28;20222;-83
2022/05/17 13:34:36;;;;;;;11.20;10.90;;;28.20;99.90;;;;;;5080617;28;20233;-83
2022/05/17 13:37:23;;;;;;;11.07;10.77;;;29.00;99.90;;;;;;5082334;28;20340;-85
2022/05/17 13:39:55;;;;;;;11.10;10.80;;;29.50;99.90;;;;;;5082557;28;20238;-83
2022/05/17 13:42:30;;;;;;;11.00;10.70;;;29.60;99.90;;;;;;5082539;28;20258;-83
2022/05/17 13:45:01;;;;;;;10.90;10.60;;;29.40;99.90;;;;;;5081606;28;20775;-83